sensor_id;sensor_type;location;lat;lon;timestamp;pressure;altitude;pressure_sealevel;temperature
61595;BMP280;47397;48.194;11.632;2023-01-09T00:00:21;94350.81;;;4.33
61595;BMP280;47397;48.194;11.632;2023-01-09T00:01:25;94356.78;;;4.29
61595;BMP280;47397;48.194;11.632;2023-01-09T00:02:25;94366.00;;;4.29
61595;BMP280;47397;48.194;11.632;2023-01-09T00:03:26;94356.91;;;4.25
61595;BMP280;47397;48.194;11.632;2023-01-09T00:04:26;94366.75;;;4.32
61595;BMP280;47397;48.194;11.632;2023-01-09T00:05:26;94360.97;;;4.29
61595;BMP280;47397;48.194;11.632;2023-01-09T00:06:27;94368.34;;;4.36
61595;BMP280;47397;48.194;11.632;2023-01-09T00:07:27;94367.38;;;4.40
61595;BMP280;47397;48.194;11.632;2023-01-09T00:08:28;94369.97;;;4.37
61595;BMP280;47397;48.194;11.632;2023-01-09T00:09:28;94378.19;;;4.44
61595;BMP280;47397;48.194;11.632;2023-01-09T00:10:30;94375.88;;;4.36
61595;BMP280;47397;48.194;11.632;2023-01-09T00:11:31;94384.28;;;4.35
61595;BMP280;47397;48.194;11.632;2023-01-09T00:12:31;94389.38;;;4.32
61595;BMP280;47397;48.194;11.632;2023-01-09T00:13:32;94392.63;;;4.37
61595;BMP280;47397;48.194;11.632;2023-01-09T00:14:32;94396.72;;;4.42
61595;BMP280;47397;48.194;11.632;2023-01-09T00:15:33;94403.38;;;4.43
61595;BMP280;47397;48.194;11.632;2023-01-09T00:16:33;94401.66;;;4.45
61595;BMP280;47397;48.194;11.632;2023-01-09T00:17:33;94407.47;;;4.48
61595;BMP280;47397;48.194;11.632;2023-01-09T00:18:34;94410.84;;;4.46
61595;BMP280;47397;48.194;11.632;2023-01-09T00:19:35;94416.97;;;4.35
61595;BMP280;47397;48.194;11.632;2023-01-09T00:20:35;94415.19;;;4.40
61595;BMP280;47397;48.194;11.632;2023-01-09T00:21:36;94417.56;;;4.47
61595;BMP280;47397;48.194;11.632;2023-01-09T00:22:36;94420.16;;;4.42
61595;BMP280;47397;48.194;11.632;2023-01-09T00:23:37;94416.56;;;4.54
61595;BMP280;47397;48.194;11.632;2023-01-09T00:24:37;94423.06;;;4.62
61595;BMP280;47397;48.194;11.632;2023-01-09T00:25:39;94423.00;;;4.64
61595;BMP280;47397;48.194;11.632;2023-01-09T00:26:40;94422.97;;;4.65
61595;BMP280;47397;48.194;11.632;2023-01-09T00:27:40;94426.78;;;4.48
61595;BMP280;47397;48.194;11.632;2023-01-09T00:28:40;94414.28;;;4.43
61595;BMP280;47397;48.194;11.632;2023-01-09T00:29:41;94405.59;;;4.56
61595;BMP280;47397;48.194;11.632;2023-01-09T00:30:41;94410.66;;;4.55
61595;BMP280;47397;48.194;11.632;2023-01-09T00:31:42;94409.06;;;4.52
61595;BMP280;47397;48.194;11.632;2023-01-09T00:32:42;94406.38;;;4.58
61595;BMP280;47397;48.194;11.632;2023-01-09T00:33:45;94407.84;;;4.67
61595;BMP280;47397;48.194;11.632;2023-01-09T00:34:47;94402.97;;;4.61
61595;BMP280;47397;48.194;11.632;2023-01-09T00:35:47;94413.13;;;4.56
61595;BMP280;47397;48.194;11.632;2023-01-09T00:36:48;94411.41;;;4.58
61595;BMP280;47397;48.194;11.632;2023-01-09T00:37:48;94410.69;;;4.53
61595;BMP280;47397;48.194;11.632;2023-01-09T00:38:49;94414.78;;;4.57
61595;BMP280;47397;48.194;11.632;2023-01-09T00:39:49;94411.59;;;4.51
61595;BMP280;47397;48.194;11.632;2023-01-09T00:40:53;94414.84;;;4.56
61595;BMP280;47397;48.194;11.632;2023-01-09T00:41:55;94419.72;;;4.62
61595;BMP280;47397;48.194;11.632;2023-01-09T00:42:56;94412.78;;;4.70
61595;BMP280;47397;48.194;11.632;2023-01-09T00:44:00;94412.88;;;4.67
61595;BMP280;47397;48.194;11.632;2023-01-09T00:45:03;94415.25;;;4.71
61595;BMP280;47397;48.194;11.632;2023-01-09T00:46:05;94423.53;;;4.77
61595;BMP280;47397;48.194;11.632;2023-01-09T00:47:08;94420.22;;;4.75
61595;BMP280;47397;48.194;11.632;2023-01-09T00:48:14;94407.69;;;4.73
61595;BMP280;47397;48.194;11.632;2023-01-09T00:49:16;94410.94;;;4.77
61595;BMP280;47397;48.194;11.632;2023-01-09T00:50:19;94417.03;;;4.68
61595;BMP280;47397;48.194;11.632;2023-01-09T00:51:20;94416.88;;;4.74
61595;BMP280;47397;48.194;11.632;2023-01-09T00:52:21;94416.72;;;4.80
61595;BMP280;47397;48.194;11.632;2023-01-09T00:53:24;94418.59;;;4.72
61595;BMP280;47397;48.194;11.632;2023-01-09T00:54:27;94407.00;;;4.66
61595;BMP280;47397;48.194;11.632;2023-01-09T00:55:28;94413.56;;;4.72
61595;BMP280;47397;48.194;11.632;2023-01-09T00:56:30;94417.00;;;4.69
61595;BMP280;47397;48.194;11.632;2023-01-09T00:57:31;94424.59;;;4.68
61595;BMP280;47397;48.194;11.632;2023-01-09T00:58:32;94412.97;;;4.62
61595;BMP280;47397;48.194;11.632;2023-01-09T00:59:33;94407.75;;;4.70
61595;BMP280;47397;48.194;11.632;2023-01-09T01:00:33;94408.38;;;4.78
61595;BMP280;47397;48.194;11.632;2023-01-09T01:01:34;94409.34;;;4.74
61595;BMP280;47397;48.194;11.632;2023-01-09T01:02:35;94412.75;;;4.71
61595;BMP280;47397;48.194;11.632;2023-01-09T01:03:35;94414.47;;;4.69
61595;BMP280;47397;48.194;11.632;2023-01-09T01:04:36;94407.44;;;4.50
61595;BMP280;47397;48.194;11.632;2023-01-09T01:05:36;94399.56;;;4.62
61595;BMP280;47397;48.194;11.632;2023-01-09T01:06:36;94402.03;;;4.65
61595;BMP280;47397;48.194;11.632;2023-01-09T01:07:37;94403.75;;;4.63
61595;BMP280;47397;48.194;11.632;2023-01-09T01:08:37;94397.03;;;4.63
61595;BMP280;47397;48.194;11.632;2023-01-09T01:09:38;94395.28;;;4.65
61595;BMP280;47397;48.194;11.632;2023-01-09T01:10:38;94396.94;;;4.66
61595;BMP280;47397;48.194;11.632;2023-01-09T01:11:40;94388.34;;;4.75
61595;BMP280;47397;48.194;11.632;2023-01-09T01:12:41;94395.19;;;4.70
61595;BMP280;47397;48.194;11.632;2023-01-09T01:13:42;94395.97;;;4.72
61595;BMP280;47397;48.194;11.632;2023-01-09T01:14:42;94387.72;;;4.67
61595;BMP280;47397;48.194;11.632;2023-01-09T01:15:45;94389.50;;;4.62
61595;BMP280;47397;48.194;11.632;2023-01-09T01:16:46;94398.84;;;4.58
61595;BMP280;47397;48.194;11.632;2023-01-09T01:17:46;94394.53;;;4.62
61595;BMP280;47397;48.194;11.632;2023-01-09T01:18:46;94397.41;;;4.48
61595;BMP280;47397;48.194;11.632;2023-01-09T01:19:47;94396.63;;;4.46
61595;BMP280;47397;48.194;11.632;2023-01-09T01:20:47;94394.63;;;4.59
61595;BMP280;47397;48.194;11.632;2023-01-09T01:21:48;94389.72;;;4.54
61595;BMP280;47397;48.194;11.632;2023-01-09T01:22:48;94395.72;;;4.49
61595;BMP280;47397;48.194;11.632;2023-01-09T01:23:49;94391.31;;;4.57
61595;BMP280;47397;48.194;11.632;2023-01-09T01:24:49;94394.63;;;4.59
61595;BMP280;47397;48.194;11.632;2023-01-09T01:25:50;94397.31;;;4.17
61595;BMP280;47397;48.194;11.632;2023-01-09T01:26:51;94402.00;;;4.31
61595;BMP280;47397;48.194;11.632;2023-01-09T01:27:52;94399.97;;;4.47
61595;BMP280;47397;48.194;11.632;2023-01-09T01:28:52;94400.75;;;4.49
61595;BMP280;47397;48.194;11.632;2023-01-09T01:29:53;94394.34;;;4.35
61595;BMP280;47397;48.194;11.632;2023-01-09T01:30:53;94389.44;;;4.31
61595;BMP280;47397;48.194;11.632;2023-01-09T01:31:54;94390.03;;;4.40
61595;BMP280;47397;48.194;11.632;2023-01-09T01:32:54;94394.16;;;4.09
61595;BMP280;47397;48.194;11.632;2023-01-09T01:33:55;94394.56;;;3.89
61595;BMP280;47397;48.194;11.632;2023-01-09T01:34:56;94394.25;;;4.03
61595;BMP280;47397;48.194;11.632;2023-01-09T01:36:01;94389.66;;;4.22
61595;BMP280;47397;48.194;11.632;2023-01-09T01:37:01;94385.06;;;4.37
61595;BMP280;47397;48.194;11.632;2023-01-09T01:38:02;94385.06;;;4.37
61595;BMP280;47397;48.194;11.632;2023-01-09T01:39:02;94381.84;;;4.32
61595;BMP280;47397;48.194;11.632;2023-01-09T01:40:05;94382.47;;;4.40
61595;BMP280;47397;48.194;11.632;2023-01-09T01:41:06;94377.41;;;4.42
61595;BMP280;47397;48.194;11.632;2023-01-09T01:42:11;94374.00;;;4.45
61595;BMP280;47397;48.194;11.632;2023-01-09T01:43:11;94379.84;;;4.45
61595;BMP280;47397;48.194;11.632;2023-01-09T01:45:45;94374.97;;;4.39
61595;BMP280;47397;48.194;11.632;2023-01-09T01:46:46;94380.00;;;4.39
61595;BMP280;47397;48.194;11.632;2023-01-09T01:47:51;94382.38;;;4.45
61595;BMP280;47397;48.194;11.632;2023-01-09T01:49:00;94383.44;;;4.36
61595;BMP280;47397;48.194;11.632;2023-01-09T01:50:06;94387.75;;;4.31
61595;BMP280;47397;48.194;11.632;2023-01-09T01:51:07;94390.09;;;4.37
61595;BMP280;47397;48.194;11.632;2023-01-09T01:52:08;94393.84;;;4.57
61595;BMP280;47397;48.194;11.632;2023-01-09T01:53:12;94394.63;;;4.59
61595;BMP280;47397;48.194;11.632;2023-01-09T01:54:16;94398.78;;;4.60
61595;BMP280;47397;48.194;11.632;2023-01-09T01:55:19;94398.88;;;4.57
61595;BMP280;47397;48.194;11.632;2023-01-09T01:56:22;94393.97;;;4.52
61595;BMP280;47397;48.194;11.632;2023-01-09T01:57:25;94386.56;;;4.46
61595;BMP280;47397;48.194;11.632;2023-01-09T01:58:26;94393.34;;;4.43
61595;BMP280;47397;48.194;11.632;2023-01-09T01:59:31;94379.78;;;4.50
61595;BMP280;47397;48.194;11.632;2023-01-09T02:00:34;94385.59;;;4.52
61595;BMP280;47397;48.194;11.632;2023-01-09T02:01:36;94388.25;;;4.44
61595;BMP280;47397;48.194;11.632;2023-01-09T02:02:37;94384.84;;;4.48
61595;BMP280;47397;48.194;11.632;2023-01-09T02:03:39;94383.16;;;4.49
61595;BMP280;47397;48.194;11.632;2023-01-09T02:04:40;94377.19;;;4.53
61595;BMP280;47397;48.194;11.632;2023-01-09T02:05:41;94380.63;;;4.49
61595;BMP280;47397;48.194;11.632;2023-01-09T02:06:42;94371.44;;;4.48
61595;BMP280;47397;48.194;11.632;2023-01-09T02:07:43;94368.91;;;4.48
61595;BMP280;47397;48.194;11.632;2023-01-09T02:08:44;94375.75;;;4.41
61595;BMP280;47397;48.194;11.632;2023-01-09T02:09:44;94376.63;;;4.40
61595;BMP280;47397;48.194;11.632;2023-01-09T02:10:45;94377.41;;;4.42
61595;BMP280;47397;48.194;11.632;2023-01-09T02:11:49;94388.19;;;4.49
61595;BMP280;47397;48.194;11.632;2023-01-09T02:12:51;94382.34;;;4.47
61595;BMP280;47397;48.194;11.632;2023-01-09T02:13:52;94384.13;;;4.42
61595;BMP280;47397;48.194;11.632;2023-01-09T02:14:56;94382.38;;;4.45
61595;BMP280;47397;48.194;11.632;2023-01-09T02:16:11;94376.59;;;4.42
61595;BMP280;47397;48.194;11.632;2023-01-09T02:17:19;94378.16;;;4.47
61595;BMP280;47397;48.194;11.632;2023-01-09T02:18:30;94378.19;;;4.44
61595;BMP280;47397;48.194;11.632;2023-01-09T02:20:06;94378.91;;;4.51
61595;BMP280;47397;48.194;11.632;2023-01-09T02:21:13;94387.66;;;4.34
61595;BMP280;47397;48.194;11.632;2023-01-09T02:22:20;94389.34;;;4.34
61595;BMP280;47397;48.194;11.632;2023-01-09T02:25:37;94390.06;;;4.39
61595;BMP280;47397;48.194;11.632;2023-01-09T02:26:56;94378.94;;;4.49
61595;BMP280;47397;48.194;11.632;2023-01-09T02:28:24;94376.00;;;4.32
61595;BMP280;47397;48.194;11.632;2023-01-09T02:29:50;94384.25;;;4.37
61595;BMP280;47397;48.194;11.632;2023-01-09T02:30:56;94379.22;;;4.37
61595;BMP280;47397;48.194;11.632;2023-01-09T02:32:03;94385.16;;;4.34
61595;BMP280;47397;48.194;11.632;2023-01-09T02:33:32;94385.13;;;4.36
61595;BMP280;47397;48.194;11.632;2023-01-09T02:34:39;94387.69;;;4.33
61595;BMP280;47397;48.194;11.632;2023-01-09T02:36:03;94389.25;;;4.38
61595;BMP280;47397;48.194;11.632;2023-01-09T02:37:11;94388.34;;;4.05
61595;BMP280;47397;48.194;11.632;2023-01-09T02:38:21;94380.22;;;4.30
61595;BMP280;47397;48.194;11.632;2023-01-09T02:39:25;94376.97;;;4.26
61595;BMP280;47397;48.194;11.632;2023-01-09T02:40:29;94372.69;;;4.30
61595;BMP280;47397;48.194;11.632;2023-01-09T02:41:37;94378.47;;;4.33
61595;BMP280;47397;48.194;11.632;2023-01-09T02:42:43;94380.19;;;4.31
61595;BMP280;47397;48.194;11.632;2023-01-09T02:43:44;94380.94;;;4.35
61595;BMP280;47397;48.194;11.632;2023-01-09T02:44:45;94378.41;;;4.36
61595;BMP280;47397;48.194;11.632;2023-01-09T02:45:45;94384.25;;;4.37
61595;BMP280;47397;48.194;11.632;2023-01-09T02:46:57;94385.91;;;4.38
61595;BMP280;47397;48.194;11.632;2023-01-09T02:47:58;94382.59;;;4.36
61595;BMP280;47397;48.194;11.632;2023-01-09T02:48:58;94381.72;;;4.37
61595;BMP280;47397;48.194;11.632;2023-01-09T02:50:01;94382.59;;;4.36
61595;BMP280;47397;48.194;11.632;2023-01-09T02:51:08;94382.75;;;4.30
61595;BMP280;47397;48.194;11.632;2023-01-09T02:52:23;94381.78;;;4.35
61595;BMP280;47397;48.194;11.632;2023-01-09T02:53:49;94386.81;;;4.35
61595;BMP280;47397;48.194;11.632;2023-01-09T02:55:03;94381.53;;;4.45
61595;BMP280;47397;48.194;11.632;2023-01-09T02:56:21;94382.69;;;4.33
61595;BMP280;47397;48.194;11.632;2023-01-09T02:57:37;94385.03;;;4.39
61595;BMP280;47397;48.194;11.632;2023-01-09T02:58:58;94378.41;;;4.36
61595;BMP280;47397;48.194;11.632;2023-01-09T03:00:09;94374.16;;;4.38
61595;BMP280;47397;48.194;11.632;2023-01-09T03:01:23;94378.28;;;4.41
61595;BMP280;47397;48.194;11.632;2023-01-09T03:02:45;94365.09;;;4.31
61595;BMP280;47397;48.194;11.632;2023-01-09T03:03:50;94367.53;;;4.34
61595;BMP280;47397;48.194;11.632;2023-01-09T03:04:57;94369.09;;;4.40
61595;BMP280;47397;48.194;11.632;2023-01-09T03:06:06;94364.16;;;4.35
61595;BMP280;47397;48.194;11.632;2023-01-09T03:07:13;94370.81;;;4.38
61595;BMP280;47397;48.194;11.632;2023-01-09T03:08:16;94359.72;;;4.45
61595;BMP280;47397;48.194;11.632;2023-01-09T03:09:19;94362.00;;;4.22
61595;BMP280;47397;48.194;11.632;2023-01-09T03:10:24;94369.56;;;4.20
61595;BMP280;47397;48.194;11.632;2023-01-09T03:11:30;94368.63;;;4.24
61595;BMP280;47397;48.194;11.632;2023-01-09T03:12:33;94372.53;;;4.36
61595;BMP280;47397;48.194;11.632;2023-01-09T03:13:40;94371.44;;;4.48
61595;BMP280;47397;48.194;11.632;2023-01-09T03:14:45;94368.75;;;4.54
61595;BMP280;47397;48.194;11.632;2023-01-09T03:15:47;94366.31;;;4.51
61595;BMP280;47397;48.194;11.632;2023-01-09T03:16:52;94369.53;;;4.56
61595;BMP280;47397;48.194;11.632;2023-01-09T03:17:56;94372.97;;;4.53
61595;BMP280;47397;48.194;11.632;2023-01-09T03:18:58;94377.88;;;4.58
61595;BMP280;47397;48.194;11.632;2023-01-09T03:20:02;94378.63;;;4.61
61595;BMP280;47397;48.194;11.632;2023-01-09T03:21:05;94385.34;;;4.61
61595;BMP280;47397;48.194;11.632;2023-01-09T03:22:07;94378.75;;;4.57
61595;BMP280;47397;48.194;11.632;2023-01-09T03:23:08;94382.16;;;4.54
61595;BMP280;47397;48.194;11.632;2023-01-09T03:24:08;94377.72;;;4.64
61595;BMP280;47397;48.194;11.632;2023-01-09T03:25:08;94380.72;;;4.44
61595;BMP280;47397;48.194;11.632;2023-01-09T03:26:09;94372.22;;;4.50
61595;BMP280;47397;48.194;11.632;2023-01-09T03:27:10;94368.91;;;4.48
61595;BMP280;47397;48.194;11.632;2023-01-09T03:28:19;94369.66;;;4.51
61595;BMP280;47397;48.194;11.632;2023-01-09T03:29:20;94370.44;;;4.53
61595;BMP280;47397;48.194;11.632;2023-01-09T03:30:21;94368.72;;;4.55
61595;BMP280;47397;48.194;11.632;2023-01-09T03:31:21;94357.59;;;4.64
61595;BMP280;47397;48.194;11.632;2023-01-09T03:32:22;94366.84;;;4.63
61595;BMP280;47397;48.194;11.632;2023-01-09T03:33:24;94365.03;;;4.34
61595;BMP280;47397;48.194;11.632;2023-01-09T03:34:24;94366.28;;;4.52
61595;BMP280;47397;48.194;11.632;2023-01-09T03:35:25;94362.13;;;4.51
61595;BMP280;47397;48.194;11.632;2023-01-09T03:36:26;94363.78;;;4.52
61595;BMP280;47397;48.194;11.632;2023-01-09T03:37:26;94364.59;;;4.53
61595;BMP280;47397;48.194;11.632;2023-01-09T03:38:26;94365.38;;;4.55
61595;BMP280;47397;48.194;11.632;2023-01-09T03:39:27;94367.91;;;4.55
61595;BMP280;47397;48.194;11.632;2023-01-09T03:40:27;94361.84;;;4.62
61595;BMP280;47397;48.194;11.632;2023-01-09T03:41:28;94365.09;;;4.65
61595;BMP280;47397;48.194;11.632;2023-01-09T03:42:28;94363.38;;;4.67
61595;BMP280;47397;48.194;11.632;2023-01-09T03:43:29;94364.50;;;4.56
61595;BMP280;47397;48.194;11.632;2023-01-09T03:44:29;94370.56;;;4.49
61595;BMP280;47397;48.194;11.632;2023-01-09T03:45:30;94368.69;;;4.57
61595;BMP280;47397;48.194;11.632;2023-01-09T03:46:30;94376.22;;;4.57
61595;BMP280;47397;48.194;11.632;2023-01-09T03:47:30;94374.53;;;4.57
61595;BMP280;47397;48.194;11.632;2023-01-09T03:48:32;94373.50;;;4.64
61595;BMP280;47397;48.194;11.632;2023-01-09T03:49:33;94376.81;;;4.66
61595;BMP280;47397;48.194;11.632;2023-01-09T03:50:33;94374.34;;;4.65
61595;BMP280;47397;48.194;11.632;2023-01-09T03:51:33;94371.69;;;4.69
61595;BMP280;47397;48.194;11.632;2023-01-09T03:52:34;94367.50;;;4.70
61595;BMP280;47397;48.194;11.632;2023-01-09T03:53:34;94364.00;;;4.76
61595;BMP280;47397;48.194;11.632;2023-01-09T03:54:35;94361.56;;;4.72
61595;BMP280;47397;48.194;11.632;2023-01-09T03:55:35;94362.72;;;4.61
61595;BMP280;47397;48.194;11.632;2023-01-09T03:56:35;94367.78;;;4.59
61595;BMP280;47397;48.194;11.632;2023-01-09T03:57:36;94362.75;;;4.59
61595;BMP280;47397;48.194;11.632;2023-01-09T03:58:36;94364.59;;;4.53
61595;BMP280;47397;48.194;11.632;2023-01-09T03:59:37;94367.81;;;4.58
61595;BMP280;47397;48.194;11.632;2023-01-09T04:00:37;94362.66;;;4.62
61595;BMP280;47397;48.194;11.632;2023-01-09T04:01:37;94366.16;;;4.57
61595;BMP280;47397;48.194;11.632;2023-01-09T04:02:38;94367.91;;;4.55
61595;BMP280;47397;48.194;11.632;2023-01-09T04:03:40;94369.63;;;4.53
61595;BMP280;47397;48.194;11.632;2023-01-09T04:04:40;94372.34;;;4.44
61595;BMP280;47397;48.194;11.632;2023-01-09T04:05:42;94372.19;;;4.51
61595;BMP280;47397;48.194;11.632;2023-01-09T04:06:42;94376.44;;;4.49
61595;BMP280;47397;48.194;11.632;2023-01-09T04:07:43;94375.75;;;4.41
61595;BMP280;47397;48.194;11.632;2023-01-09T04:08:43;94374.94;;;4.40
61595;BMP280;47397;48.194;11.632;2023-01-09T04:09:44;94373.13;;;4.47
61595;BMP280;47397;48.194;11.632;2023-01-09T04:10:44;94373.13;;;4.46
61595;BMP280;47397;48.194;11.632;2023-01-09T04:11:45;94378.13;;;4.49
61595;BMP280;47397;48.194;11.632;2023-01-09T04:12:45;94376.16;;;4.60
61595;BMP280;47397;48.194;11.632;2023-01-09T04:13:46;94377.09;;;4.56
61595;BMP280;47397;48.194;11.632;2023-01-09T04:14:46;94377.03;;;4.59
61595;BMP280;47397;48.194;11.632;2023-01-09T04:15:46;94383.19;;;4.46
61595;BMP280;47397;48.194;11.632;2023-01-09T04:16:47;94375.31;;;4.59
61595;BMP280;47397;48.194;11.632;2023-01-09T04:17:47;94378.72;;;4.58
61595;BMP280;47397;48.194;11.632;2023-01-09T04:18:49;94383.66;;;4.61
61595;BMP280;47397;48.194;11.632;2023-01-09T04:19:50;94379.50;;;4.60
61595;BMP280;47397;48.194;11.632;2023-01-09T04:20:50;94371.03;;;4.63
61595;BMP280;47397;48.194;11.632;2023-01-09T04:21:50;94383.84;;;4.54
61595;BMP280;47397;48.194;11.632;2023-01-09T04:22:51;94382.91;;;4.58
61595;BMP280;47397;48.194;11.632;2023-01-09T04:23:51;94383.78;;;4.57
61595;BMP280;47397;48.194;11.632;2023-01-09T04:24:51;94381.97;;;4.62
61595;BMP280;47397;48.194;11.632;2023-01-09T04:25:52;94385.34;;;4.61
61595;BMP280;47397;48.194;11.632;2023-01-09T04:26:52;94395.28;;;4.65
61595;BMP280;47397;48.194;11.632;2023-01-09T04:27:53;94395.19;;;4.70
61595;BMP280;47397;48.194;11.632;2023-01-09T04:28:53;94397.41;;;4.81
61595;BMP280;47397;48.194;11.632;2023-01-09T04:29:54;94397.31;;;4.85
61595;BMP280;47397;48.194;11.632;2023-01-09T04:30:54;94401.50;;;4.86
61595;BMP280;47397;48.194;11.632;2023-01-09T04:31:54;94395.66;;;4.84
61595;BMP280;47397;48.194;11.632;2023-01-09T04:32:55;94403.69;;;4.98
61595;BMP280;47397;48.194;11.632;2023-01-09T04:33:57;94405.16;;;5.06
61595;BMP280;47397;48.194;11.632;2023-01-09T04:34:57;94412.50;;;5.13
61595;BMP280;47397;48.194;11.632;2023-01-09T04:35:57;94417.38;;;5.21
61595;BMP280;47397;48.194;11.632;2023-01-09T04:36:58;94422.50;;;5.16
61595;BMP280;47397;48.194;11.632;2023-01-09T04:37:58;94415.53;;;5.26
61595;BMP280;47397;48.194;11.632;2023-01-09T04:38:59;94415.47;;;5.29
61595;BMP280;47397;48.194;11.632;2023-01-09T04:39:59;94415.22;;;5.38
61595;BMP280;47397;48.194;11.632;2023-01-09T04:40:59;94416.63;;;5.47
61595;BMP280;47397;48.194;11.632;2023-01-09T04:42:00;94422.50;;;5.47
61595;BMP280;47397;48.194;11.632;2023-01-09T04:43:00;94424.75;;;5.58
61595;BMP280;47397;48.194;11.632;2023-01-09T04:44:00;94422.09;;;5.62
61595;BMP280;47397;48.194;11.632;2023-01-09T04:45:01;94423.84;;;5.60
61595;BMP280;47397;48.194;11.632;2023-01-09T04:46:01;94432.78;;;5.71
61595;BMP280;47397;48.194;11.632;2023-01-09T04:47:02;94428.47;;;5.74
61595;BMP280;47397;48.194;11.632;2023-01-09T04:48:03;94421.50;;;5.82
61595;BMP280;47397;48.194;11.632;2023-01-09T04:49:05;94428.75;;;5.94
61595;BMP280;47397;48.194;11.632;2023-01-09T04:50:06;94427.19;;;5.90
61595;BMP280;47397;48.194;11.632;2023-01-09T04:51:06;94429.47;;;6.00
61595;BMP280;47397;48.194;11.632;2023-01-09T04:52:07;94433.53;;;6.04
61595;BMP280;47397;48.194;11.632;2023-01-09T04:53:07;94438.63;;;6.02
61595;BMP280;47397;48.194;11.632;2023-01-09T04:54:08;94439.34;;;6.06
61595;BMP280;47397;48.194;11.632;2023-01-09T04:55:08;94440.41;;;5.99
61595;BMP280;47397;48.194;11.632;2023-01-09T04:56:09;94431.69;;;6.09
61595;BMP280;47397;48.194;11.632;2023-01-09T04:57:09;94436.00;;;6.05
61595;BMP280;47397;48.194;11.632;2023-01-09T04:58:10;94437.63;;;6.08
61595;BMP280;47397;48.194;11.632;2023-01-09T04:59:10;94439.13;;;6.13
61595;BMP280;47397;48.194;11.632;2023-01-09T05:00:11;94438.34;;;6.11
61595;BMP280;47397;48.194;11.632;2023-01-09T05:01:12;94445.88;;;6.13
61595;BMP280;47397;48.194;11.632;2023-01-09T05:02:12;94442.47;;;6.14
61595;BMP280;47397;48.194;11.632;2023-01-09T05:03:12;94448.25;;;6.17
61595;BMP280;47397;48.194;11.632;2023-01-09T05:04:14;94445.28;;;6.33
61595;BMP280;47397;48.194;11.632;2023-01-09T05:05:15;94444.53;;;6.29
61595;BMP280;47397;48.194;11.632;2023-01-09T05:06:16;94452.59;;;6.40
61595;BMP280;47397;48.194;11.632;2023-01-09T05:07:16;94452.69;;;6.37
61595;BMP280;47397;48.194;11.632;2023-01-09T05:08:16;94445.00;;;6.42
61595;BMP280;47397;48.194;11.632;2023-01-09T05:09:17;94458.56;;;6.38
61595;BMP280;47397;48.194;11.632;2023-01-09T05:10:17;94464.50;;;6.37
61595;BMP280;47397;48.194;11.632;2023-01-09T05:11:18;94456.78;;;6.41
61595;BMP280;47397;48.194;11.632;2023-01-09T05:12:18;94460.09;;;6.43
61595;BMP280;47397;48.194;11.632;2023-01-09T05:13:18;94464.75;;;6.55
61595;BMP280;47397;48.194;11.632;2023-01-09T05:14:19;94460.50;;;6.56
61595;BMP280;47397;48.194;11.632;2023-01-09T05:15:19;94461.53;;;6.50
61595;BMP280;47397;48.194;11.632;2023-01-09T05:16:20;94468.19;;;6.53
61595;BMP280;47397;48.194;11.632;2023-01-09T05:17:20;94463.03;;;6.56
61595;BMP280;47397;48.194;11.632;2023-01-09T05:18:21;94473.19;;;6.54
61595;BMP280;47397;48.194;11.632;2023-01-09T05:19:22;94473.50;;;6.72
61595;BMP280;47397;48.194;11.632;2023-01-09T05:20:23;94470.72;;;6.79
61595;BMP280;47397;48.194;11.632;2023-01-09T05:21:23;94492.00;;;6.72
61595;BMP280;47397;48.194;11.632;2023-01-09T05:22:24;94485.00;;;6.80
61595;BMP280;47397;48.194;11.632;2023-01-09T05:23:24;94506.75;;;6.84
61595;BMP280;47397;48.194;11.632;2023-01-09T05:24:25;94501.16;;;7.01
61595;BMP280;47397;48.194;11.632;2023-01-09T05:25:25;94497.13;;;6.96
61595;BMP280;47397;48.194;11.632;2023-01-09T05:26:25;94490.31;;;6.98
61595;BMP280;47397;48.194;11.632;2023-01-09T05:27:26;94496.31;;;6.95
61595;BMP280;47397;48.194;11.632;2023-01-09T05:28:26;94512.56;;;6.86
61595;BMP280;47397;48.194;11.632;2023-01-09T05:29:27;94511.50;;;6.94
61595;BMP280;47397;48.194;11.632;2023-01-09T05:30:27;94502.22;;;6.94
61595;BMP280;47397;48.194;11.632;2023-01-09T05:31:28;94512.56;;;6.86
61595;BMP280;47397;48.194;11.632;2023-01-09T05:32:28;94510.72;;;6.92
61595;BMP280;47397;48.194;11.632;2023-01-09T05:33:29;94520.94;;;6.88
61595;BMP280;47397;48.194;11.632;2023-01-09T05:34:31;94513.16;;;6.95
61595;BMP280;47397;48.194;11.632;2023-01-09T05:35:31;94534.81;;;7.02
61595;BMP280;47397;48.194;11.632;2023-01-09T05:36:32;94516.16;;;7.06
61595;BMP280;47397;48.194;11.632;2023-01-09T05:37:32;94532.19;;;7.05
61595;BMP280;47397;48.194;11.632;2023-01-09T05:38:32;94533.22;;;6.99
61595;BMP280;47397;48.194;11.632;2023-01-09T05:39:33;94524.91;;;6.96
61595;BMP280;47397;48.194;11.632;2023-01-09T05:40:33;94530.63;;;7.01
61595;BMP280;47397;48.194;11.632;2023-01-09T05:41:34;94543.25;;;7.01
61595;BMP280;47397;48.194;11.632;2023-01-09T05:42:34;94546.56;;;7.03
61595;BMP280;47397;48.194;11.632;2023-01-09T05:43:35;94531.59;;;6.97
61595;BMP280;47397;48.194;11.632;2023-01-09T05:44:35;94540.88;;;6.96
61595;BMP280;47397;48.194;11.632;2023-01-09T05:45:35;94543.31;;;6.99
61595;BMP280;47397;48.194;11.632;2023-01-09T05:46:36;94546.66;;;7.00
61595;BMP280;47397;48.194;11.632;2023-01-09T05:47:36;94555.88;;;7.01
61595;BMP280;47397;48.194;11.632;2023-01-09T05:48:37;94546.47;;;7.06
61595;BMP280;47397;48.194;11.632;2023-01-09T05:49:39;94555.88;;;7.01
61595;BMP280;47397;48.194;11.632;2023-01-09T05:50:39;94553.56;;;6.95
61595;BMP280;47397;48.194;11.632;2023-01-09T05:51:39;94561.03;;;6.98
61595;BMP280;47397;48.194;11.632;2023-01-09T05:52:40;94570.31;;;6.97
61595;BMP280;47397;48.194;11.632;2023-01-09T05:53:40;94580.38;;;6.99
61595;BMP280;47397;48.194;11.632;2023-01-09T05:54:41;94568.53;;;7.01
61595;BMP280;47397;48.194;11.632;2023-01-09T05:55:41;94577.06;;;6.97
61595;BMP280;47397;48.194;11.632;2023-01-09T05:56:42;94575.41;;;6.96
61595;BMP280;47397;48.194;11.632;2023-01-09T05:57:42;94574.53;;;6.97
61595;BMP280;47397;48.194;11.632;2023-01-09T05:58:43;94579.63;;;6.95
61595;BMP280;47397;48.194;11.632;2023-01-09T05:59:43;94568.66;;;6.96
61595;BMP280;47397;48.194;11.632;2023-01-09T06:00:43;94573.03;;;6.91
61595;BMP280;47397;48.194;11.632;2023-01-09T06:01:44;94562.09;;;6.90
61595;BMP280;47397;48.194;11.632;2023-01-09T06:02:44;94571.25;;;6.95